createdAt,value
2023-08-13T00:00:11.888Z,49.85
2023-08-13T00:05:16.365Z,50.22
2023-08-13T00:10:19.906Z,50.10
2023-08-13T00:15:24.964Z,50.47
2023-08-13T00:20:28.518Z,50.54
2023-08-13T00:25:32.037Z,50.72
2023-08-13T00:30:38.187Z,50.05
2023-08-13T00:35:41.843Z,50.16
2023-08-13T00:40:45.356Z,50.23
2023-08-13T00:45:50.371Z,50.32
2023-08-13T00:50:53.911Z,50.18
2023-08-13T00:55:58.119Z,50.20
2023-08-13T01:01:03.531Z,49.97
2023-08-13T01:06:11.493Z,50.12
2023-08-13T01:11:21.654Z,50.30
2023-08-13T01:16:26.647Z,50.78
2023-08-13T01:21:30.161Z,50.74
2023-08-13T01:26:40.086Z,50.14
2023-08-13T01:31:46.367Z,50.35
2023-08-13T01:36:50.178Z,50.57
2023-08-13T01:41:56.105Z,50.66
2023-08-13T01:46:59.605Z,50.41
2023-08-13T01:52:03.153Z,50.45
2023-08-13T01:57:08.094Z,50.41
2023-08-13T02:02:12.571Z,50.74
2023-08-13T02:07:16.311Z,50.47
2023-08-13T02:12:21.481Z,50.59
2023-08-13T02:17:25.178Z,50.59
2023-08-13T02:22:28.754Z,50.57
2023-08-13T02:27:33.708Z,50.38
2023-08-13T02:32:37.249Z,50.64
2023-08-13T02:37:40.804Z,50.91
2023-08-13T02:42:45.739Z,50.87
2023-08-13T02:47:49.340Z,51.00
2023-08-13T02:52:53.169Z,51.06
2023-08-13T02:58:09.319Z,51.05
2023-08-13T03:03:13.971Z,50.64
2023-08-13T03:08:17.511Z,51.14
2023-08-13T03:13:22.483Z,50.88
2023-08-13T03:18:26.728Z,50.74
2023-08-13T03:23:30.604Z,50.79
2023-08-13T03:28:35.546Z,50.56
2023-08-13T03:33:39.085Z,50.67
2023-08-13T03:38:42.963Z,50.93
2023-08-13T03:43:47.876Z,51.27
2023-08-13T03:48:51.437Z,50.82
2023-08-13T03:53:54.953Z,50.66
2023-08-13T03:58:59.954Z,51.05
2023-08-13T04:04:03.812Z,50.52
2023-08-13T04:09:07.670Z,50.77
2023-08-13T04:14:12.699Z,50.42
2023-08-13T04:19:16.218Z,50.43
2023-08-13T04:24:19.786Z,50.41
2023-08-13T04:29:24.792Z,50.35
2023-08-13T04:34:28.299Z,50.63
2023-08-13T04:39:31.833Z,50.60
2023-08-13T04:44:36.724Z,50.47
2023-08-13T04:49:40.252Z,50.51
2023-08-13T04:54:44.289Z,50.79
2023-08-13T04:59:49.411Z,50.91
2023-08-13T05:04:52.964Z,50.70
2023-08-13T05:09:56.452Z,51.00
2023-08-13T05:15:01.375Z,50.82
2023-08-13T05:20:07.723Z,50.47
2023-08-13T05:25:11.511Z,50.45
2023-08-13T05:30:17.273Z,50.87
2023-08-13T05:35:21.090Z,50.58
2023-08-13T05:40:24.662Z,50.73
2023-08-13T05:45:29.527Z,50.69
2023-08-13T05:50:33.031Z,50.74
2023-08-13T05:55:36.923Z,51.00
2023-08-13T06:00:42.298Z,50.74
2023-08-13T06:05:47.349Z,51.27
2023-08-13T06:10:51.004Z,50.31
2023-08-13T06:15:55.950Z,50.82
2023-08-13T06:20:59.473Z,50.64
2023-08-13T06:26:03.014Z,50.37
2023-08-13T06:31:08.097Z,50.55
2023-08-13T06:36:11.711Z,50.37
2023-08-13T06:41:15.199Z,50.92
2023-08-13T06:46:20.174Z,51.02
2023-08-13T06:51:23.733Z,50.94
2023-08-13T06:56:27.232Z,51.58
2023-08-13T07:01:32.139Z,51.74
2023-08-13T07:06:36.043Z,51.36
2023-08-13T07:11:39.557Z,52.12
2023-08-13T07:16:44.525Z,52.16
2023-08-13T07:21:48.114Z,51.84
2023-08-13T07:26:51.743Z,52.02
2023-08-13T07:31:56.716Z,51.36
2023-08-13T07:37:00.963Z,51.34
2023-08-13T07:42:04.498Z,51.46
2023-08-13T07:47:09.627Z,51.39
2023-08-13T07:52:13.439Z,51.05
2023-08-13T07:57:17.191Z,51.31
2023-08-13T08:02:22.213Z,52.07
2023-08-13T08:07:26.946Z,51.66
2023-08-13T08:12:30.543Z,51.90
2023-08-13T08:17:36.827Z,51.51
2023-08-13T08:22:41.211Z,51.55
2023-08-13T08:27:44.736Z,51.90
2023-08-13T08:32:49.960Z,51.59
2023-08-13T08:37:53.590Z,51.33
2023-08-13T08:42:57.145Z,51.91
2023-08-13T08:48:02.460Z,52.36
2023-08-13T08:53:06.638Z,52.92
2023-08-13T08:58:10.218Z,51.78
2023-08-13T09:03:15.195Z,52.05
2023-08-13T09:08:20.590Z,52.16
2023-08-13T09:13:24.839Z,52.20
2023-08-13T09:18:29.978Z,52.11
2023-08-13T09:23:33.519Z,52.66
2023-08-13T09:28:45.545Z,52.29
2023-08-13T09:33:50.519Z,52.32
2023-08-13T09:38:54.516Z,52.49
2023-08-13T09:44:02.270Z,52.34
2023-08-13T09:49:10.747Z,52.24
2023-08-13T09:54:17.482Z,52.65
2023-08-13T09:59:21.013Z,52.71
2023-08-13T10:04:27.144Z,52.27
2023-08-13T10:09:30.953Z,52.34
2023-08-13T10:14:34.775Z,52.80
2023-08-13T10:19:41.852Z,52.78
2023-08-13T10:24:45.600Z,53.24
2023-08-13T10:29:49.177Z,53.21
2023-08-13T10:34:55.981Z,54.02
2023-08-13T10:40:09.444Z,54.04
2023-08-13T10:45:17.010Z,54.64
2023-08-13T10:50:38.052Z,54.39
2023-08-13T10:55:43.053Z,54.14
2023-08-13T11:00:46.925Z,54.21
2023-08-13T11:05:53.497Z,54.15
2023-08-13T11:10:57.556Z,54.24
2023-08-13T11:16:01.319Z,54.36
2023-08-13T11:21:07.226Z,54.48
2023-08-13T11:26:11.974Z,54.63
2023-08-13T11:31:16.249Z,54.97
2023-08-13T11:36:21.556Z,54.27
2023-08-13T11:41:25.838Z,54.61
2023-08-13T11:46:29.383Z,54.94
2023-08-13T11:51:34.722Z,54.53
2023-08-13T11:56:40.913Z,54.17
2023-08-13T12:01:44.455Z,54.36
2023-08-13T12:06:49.563Z,53.70
2023-08-13T12:11:56.182Z,54.20
2023-08-13T12:16:59.755Z,54.29
2023-08-13T12:22:04.917Z,54.14
2023-08-13T12:27:08.558Z,54.14
2023-08-13T12:32:12.153Z,54.27
2023-08-13T12:37:17.083Z,54.38
2023-08-13T12:42:21.753Z,54.06
2023-08-13T12:47:25.310Z,54.20
2023-08-13T12:52:30.425Z,54.18
2023-08-13T12:57:34.865Z,54.25
2023-08-13T13:02:38.654Z,54.04
2023-08-13T13:07:43.584Z,54.02
2023-08-13T13:12:47.790Z,53.77
2023-08-13T13:17:51.495Z,53.72
2023-08-13T13:22:56.577Z,53.95
2023-08-13T13:28:02.386Z,54.05
2023-08-13T13:33:06.269Z,54.20
2023-08-13T13:38:11.761Z,53.91
2023-08-13T13:43:15.371Z,54.27
2023-08-13T13:48:18.939Z,54.36
2023-08-13T13:53:23.983Z,54.09
2023-08-13T13:58:27.559Z,54.02
2023-08-13T14:03:31.243Z,54.31
2023-08-13T14:08:36.236Z,54.37
2023-08-13T14:13:39.804Z,54.67
2023-08-13T14:18:43.992Z,55.18
2023-08-13T14:23:48.916Z,54.89
2023-08-13T14:28:53.227Z,55.30
2023-08-13T14:33:56.804Z,55.74
2023-08-13T14:39:04.901Z,55.61
2023-08-13T14:44:08.684Z,55.23
2023-08-13T14:49:12.270Z,54.93
2023-08-13T14:54:17.203Z,54.54
2023-08-13T14:59:21.162Z,55.33
2023-08-13T15:04:25.517Z,54.94
2023-08-13T15:09:31.097Z,55.36
2023-08-13T15:14:34.681Z,54.61
2023-08-13T15:19:38.842Z,54.80
2023-08-13T15:24:43.757Z,54.96
2023-08-13T15:29:47.320Z,55.20
2023-08-13T15:34:50.898Z,54.60
2023-08-13T15:39:55.864Z,54.67
2023-08-13T15:45:00.236Z,54.40
2023-08-13T15:50:03.906Z,52.61
2023-08-13T15:55:09.259Z,53.92
2023-08-13T16:00:14.697Z,53.81
2023-08-13T16:05:18.902Z,54.31
2023-08-13T16:10:23.914Z,53.72
2023-08-13T16:15:28.172Z,53.77
2023-08-13T16:20:31.892Z,53.91
2023-08-13T16:25:36.734Z,53.45
2023-08-13T16:30:40.250Z,53.66
2023-08-13T16:35:43.893Z,53.58
2023-08-13T16:40:48.703Z,53.24
2023-08-13T16:45:52.251Z,53.58
2023-08-13T16:50:55.865Z,53.68
2023-08-13T16:56:01.129Z,53.98
2023-08-13T17:01:04.863Z,53.60
2023-08-13T17:06:08.520Z,53.99
2023-08-13T17:11:13.501Z,53.60
2023-08-13T17:16:17.176Z,53.66
2023-08-13T17:21:20.823Z,53.63
2023-08-13T17:26:26.617Z,53.53
2023-08-13T17:31:31.004Z,53.06
2023-08-13T17:36:34.749Z,53.26
2023-08-13T17:41:39.606Z,53.08
2023-08-13T17:46:43.150Z,53.52
2023-08-13T17:51:46.817Z,53.57
2023-08-13T17:56:51.774Z,53.56
2023-08-13T18:01:55.215Z,53.61
2023-08-13T18:06:58.795Z,53.61
2023-08-13T18:12:03.755Z,53.58
2023-08-13T18:17:07.276Z,53.81
2023-08-13T18:22:10.830Z,53.70
2023-08-13T18:27:16.270Z,53.59
2023-08-13T18:32:19.890Z,53.80
2023-08-13T18:37:23.422Z,53.94
2023-08-13T18:42:28.352Z,53.54
2023-08-13T18:47:31.840Z,54.10
2023-08-13T18:52:35.466Z,53.90
2023-08-13T18:57:40.658Z,53.90
2023-08-13T19:02:44.393Z,54.11
2023-08-13T19:07:48.455Z,54.17
2023-08-13T19:12:53.533Z,54.21
2023-08-13T19:17:57.105Z,54.19
2023-08-13T19:23:00.628Z,53.97
2023-08-13T19:28:06.267Z,54.17
2023-08-13T19:33:09.815Z,54.17
2023-08-13T19:38:13.352Z,54.24
2023-08-13T19:43:20.751Z,54.35
2023-08-13T19:48:24.377Z,54.83
2023-08-13T19:53:28.672Z,54.60
2023-08-13T19:58:33.583Z,54.35
2023-08-13T20:03:37.173Z,55.22
2023-08-13T20:08:40.854Z,54.77
2023-08-13T20:13:45.792Z,54.62
2023-08-13T20:18:49.231Z,54.79
2023-08-13T20:23:52.770Z,54.63
2023-08-13T20:28:57.726Z,54.48
2023-08-13T20:34:01.161Z,55.06
2023-08-13T20:39:05.272Z,55.07
2023-08-13T20:44:10.350Z,54.92
2023-08-13T20:49:20.488Z,54.81
2023-08-13T20:54:24.196Z,55.15
2023-08-13T20:59:29.671Z,54.94
2023-08-13T21:04:33.176Z,55.17
2023-08-13T21:09:36.881Z,55.00
2023-08-13T21:14:42.386Z,55.18
2023-08-13T21:19:46.013Z,55.11
2023-08-13T21:24:49.662Z,55.29
2023-08-13T21:30:06.952Z,55.03
2023-08-13T21:35:12.579Z,55.21
2023-08-13T21:40:16.550Z,55.33
2023-08-13T21:45:21.477Z,55.51
2023-08-13T21:50:25.110Z,55.23
2023-08-13T21:55:28.822Z,55.17
2023-08-13T22:00:33.792Z,55.07
2023-08-13T22:05:42.528Z,55.38
2023-08-13T22:10:46.808Z,55.15
2023-08-13T22:15:51.766Z,55.27
2023-08-13T22:20:55.295Z,55.24
2023-08-13T22:26:05.240Z,55.17
2023-08-13T22:31:21.709Z,55.27
2023-08-13T22:36:25.305Z,55.28
2023-08-13T22:41:28.869Z,55.32
2023-08-13T22:46:33.737Z,55.36
2023-08-13T22:51:37.231Z,55.75
2023-08-13T22:56:40.884Z,55.25
2023-08-13T23:01:46.333Z,55.56
2023-08-13T23:06:49.933Z,55.45
2023-08-13T23:11:54.221Z,55.67
2023-08-13T23:16:59.057Z,55.47
2023-08-13T23:22:02.523Z,55.80
2023-08-13T23:27:06.242Z,55.20
2023-08-13T23:32:12.153Z,55.19
2023-08-13T23:37:15.704Z,55.35
2023-08-13T23:42:19.593Z,55.37
2023-08-13T23:47:24.747Z,55.61
2023-08-13T23:52:28.244Z,55.14
2023-08-13T23:57:33.042Z,55.51
